Aérodrome :
LOGIN :

S'inscrire | Disclaimer

   EN    FR    IT 

 










Légende :    VFR   VFR Marginal   IFR   IFR Intensif   IFR Très Intensif
Visi : 
Plafond : 
>= 8 km
>= 3000ft
5 à 8 km
1000 à 3000 ft
1500m à 5 km
500 à 1000 ft
800 à 1500m
200 à 500 ft
< 800m
< 200 ft
Symboles :   Orages  Brouillard  Fortes neiges  Fortes précipitations  Vent > 20 kt
SIGMETs :   Divers  Orages  Givrage  Turbulence  Onde Orograph.  Cendres Volcan.







- Altitude de l'aérodrome : 1325 ft
- Code IATA : EBU
- Voir les cartes d'approche


LFMH - St-Etienne Boutheon

DERNIER METAR :
  • 202030Z AUTO 24005KT 210V270 9999 BKN034 BKN044 BKN056 11/08 Q1008 NOSIG

METARs EXPIRÉS :
  • 202000Z AUTO VRB03KT 9999 OVC032 11/07 Q1008 NOSIG
  • 201930Z AUTO 26003KT 230V300 9999 BKN033 BKN068 OVC230 10/07 Q1008 NOSIG
  • 201900Z AUTO 19003KT 9999 OVC035/// ///TCU 10/07 Q1008 BECMG BKN030 BKN050
  • 201830Z AUTO 20004KT 180V240 9999 FEW024 BKN035 OVC066 10/07 Q1008 NOSIG
  • 201800Z AUTO VRB03KT 9999 FEW025 BKN034 BKN044 11/07 Q1008 NOSIG
  • 201730Z AUTO 20003KT 9999 FEW026 BKN032 OVC043 11/06 Q1008 NOSIG

TAF TAF LFMH
Valide du 20 à 15h jusqu'au 21 à 15h UTC


201400Z 2015/2115 23010KT 9999 BKN030 BKN050
BECMG 2018/2021 26005KT
BECMG 2103/2106 33012KT
BECMG 2109/2112 VRB03KT
BECMG 2112/2115 OVC030
ATIS : +33 4 77 36 17 51
Pas de NOTAMs connus pour ce terrain.
11 SIGMETs publiés pour la FIR Marseille (LFMM) :
 
Turbulence forte
LFMM SIGMET 21 VALID 202300/210300 LFPW
LFMM MARSEILLE FIR/UIR SEV TURB FCST WI N4200 E00430 - N4200 E00415 - N4215 E00230 - N4300 E00245 - N4345 E00800 - N4315 E00945 - N4145 E00945 - N4115 E00930 - N4115 E00815 - N4200 E00430 SFC/FL070 STNR INTSF=
Turbulence forte
LFMM SIGMET 20 VALID 202300/210300 LFPW
LFMM MARSEILLE FIR/UIR SEV TURB FCST NW OF LINE N4215 E00300 - N4630 E00445 SFC/FL100 STNR NC=
Onde orographique forte
LFMM SIGMET 19 VALID 202300/210300 LFPW
LFMM MARSEILLE FIR/UIR SEV MTW FCST E OF E00845 SFC/FL200 STNR NC=
Onde orographique forte
LFMM SIGMET 18 VALID 202300/210300 LFPW
LFMM MARSEILLE FIR/UIR SEV MTW FCST WI N4215 E00345 - N4215 E00230 - N4245 E00230 - N4230 E00345 - N4215 E00345 SFC/FL350 STNR NC=
Annulation du SIGMET 10
LFMM SIGMET 17 VALID 201950/202100 LFPW
LFMM MARSEILLE FIR/UIR CNL SIGMET 10 201800/202100=
Turbulence forte
LFMM SIGMET 16 VALID 202000/202300 LFPW
LFMM MARSEILLE FIR/UIR SEV TURB FCST WI N4545 E00700 - N4400 E00700 - N4345 E00800 - N4300 E00615 - N4545 E00600 - N4545 E00700 SFC/FL120 STNR NC=
Turbulence forte
LFMM SIGMET 15 VALID 201930/202300 LFPW
LFMM MARSEILLE FIR/UIR SEV TURB FCST WI N4200 E00430 - N4200 E00415 - N4215 E00230 - N4300 E00245 - N4345 E00800 - N4315 E00945 - N4145 E00945 - N4115 E00930 - N4115 E00815 - N4200 E00430 SFC/FL070 STNR INTSF=
Turbulence forte
LFMM SIGMET 14 VALID 202000/202300 LFPW
LFMM MARSEILLE FIR/UIR SEV TURB FCST NW OF LINE N4215 E00300 - N4630 E00445 SFC/FL100 STNR INTSF=
Onde orographique forte
LFMM SIGMET 13 VALID 202000/202300 LFPW
LFMM MARSEILLE FIR/UIR SEV MTW FCST WI N4215 E00345 - N4215 E00230 - N4245 E00230 - N4230 E00345 - N4215 E00345 SFC/FL350 STNR NC=
Onde orographique forte
LFMM SIGMET 12 VALID 202000/202300 LFPW
LFMM MARSEILLE FIR/UIR SEV MTW FCST E OF E00845 SFC/FL200 STNR NC=
Onde orographique forte
LFMM SIGMET 11 VALID 201800/202100 LFPW
LFMM MARSEILLE FIR/UIR SEV MTW FCST WI N4300 E00230 - N4345 E00245 - N4445 E00400 - N4415 E00445 - N4300 E00230 SFC/FL250 STNR NC=



MET'MAP, la Météo Aéronautique d'un coup d'oeil ! - Copyright ORBIFLY Décembre 2007 - Disclaimer

ORBIFLY MET'MAP TEAM :

Programmation & Développement : Alexandra Zaïnal
Conception & Développement : Baudouin d'Aumeries
Co-Programmation & Développement : Marc-Olivier Méhu
Soutien technique & logistique : Manuel Goepfert

Contact : metmap@orbifly.com




SOURCES & CREDITS :

   NOAA